Time;durP1;ratioP1;P1;durP2;ratioP2;P2;SDS_P1;SDS_P2;PMS_P1;PMS_P2;Temp;Humidity;BMP_temperature;BMP_pressure;BME280_temperature;BME280_humidity;BME280_pressure;Samples;Min_cycle;Max_cycle;Signal;HPM_P1;HPM_P2
2021/01/11 00:02:02;;;;;;;13.55;8.70;;;;;;;7.26;73.74;99445.44;5035044;28;20066;-82
2021/01/11 00:04:28;;;;;;;14.48;8.52;;;;;;;7.36;73.06;99455.81;5036284;28;20033;-79
2021/01/11 00:06:54;;;;;;;12.07;7.18;;;;;;;7.44;73.86;99457.66;5036165;28;20033;-83
2021/01/11 00:09:20;;;;;;;10.50;6.13;;;;;;;7.41;73.27;99468.44;5036250;28;20021;-81
2021/01/11 00:11:46;;;;;;;12.77;7.00;;;;;;;7.52;73.87;99481.31;5036033;28;20040;-80
2021/01/11 00:14:11;;;;;;;9.55;5.75;;;;;;;7.31;73.38;99458.91;5035932;28;20044;-77
2021/01/11 00:16:36;;;;;;;13.25;8.88;;;;;;;7.44;74.06;99476.88;5035995;28;20021;-81
2021/01/11 00:19:02;;;;;;;12.18;7.53;;;;;;;7.02;73.32;99421.72;5034939;28;20420;-79
2021/01/11 00:21:28;;;;;;;12.10;6.97;;;;;;;7.09;73.86;99414.03;5036244;28;20112;-80
2021/01/11 00:23:54;;;;;;;10.23;6.50;;;;;;;7.34;74.13;99455.97;5035892;28;20029;-77
2021/01/11 00:26:19;;;;;;;11.90;6.05;;;;;;;7.22;73.53;99438.84;5034784;28;20059;-80
2021/01/11 00:28:45;;;;;;;8.35;5.47;;;;;;;7.41;74.17;99482.41;5035190;28;20025;-80
2021/01/11 00:31:11;;;;;;;10.68;6.05;;;;;;;7.21;73.94;99442.47;5035394;28;20079;-79
2021/01/11 00:33:37;;;;;;;8.88;6.20;;;;;;;7.45;74.11;99446.16;5035943;28;20055;-82
2021/01/11 00:36:03;;;;;;;11.60;6.60;;;;;;;7.49;73.45;99452.75;5034542;28;20467;-83
2021/01/11 00:38:29;;;;;;;13.05;6.38;;;;;;;7.53;73.76;99459.31;5034545;28;20025;-80
2021/01/11 00:40:55;;;;;;;10.68;6.85;;;;;;;7.53;73.68;99467.19;5035442;28;20021;-80
2021/01/11 00:43:20;;;;;;;11.65;6.00;;;;;;;7.51;73.69;99467.38;5035542;28;20025;-82
2021/01/11 00:45:45;;;;;;;12.98;7.00;;;;;;;7.52;73.74;99463.75;5034545;28;20040;-80
2021/01/11 00:48:11;;;;;;;12.50;6.28;;;;;;;7.49;73.71;99443.06;5035346;28;20343;-81
2021/01/11 00:50:36;;;;;;;10.20;5.43;;;;;;;7.42;74.35;99428.06;5035405;28;20428;-80
2021/01/11 00:53:02;;;;;;;17.60;8.32;;;;;;;7.53;74.30;99444.38;5034195;28;20040;-78
2021/01/11 00:55:27;;;;;;;17.02;9.30;;;;;;;7.59;74.10;99429.78;5035649;28;20110;-83
2021/01/11 00:57:52;;;;;;;19.60;8.95;;;;;;;7.58;73.77;99439.47;5035922;28;20032;-82
2021/01/11 01:00:19;;;;;;;16.20;8.23;;;;;;;6.52;73.77;99280.78;5035074;28;20131;-80
2021/01/11 01:02:45;;;;;;;10.53;6.43;;;;;;;7.40;74.23;99417.72;5035231;28;20025;-81
2021/01/11 01:05:11;;;;;;;11.88;6.25;;;;;;;7.53;73.64;99441.75;5035057;28;20052;-81
2021/01/11 01:07:38;;;;;;;8.15;4.47;;;;;;;6.55;73.40;99271.78;5035199;28;20034;-82
2021/01/11 01:10:05;;;;;;;6.38;3.97;;;;;;;7.50;73.64;99412.34;5035094;28;20099;-81
2021/01/11 01:12:31;;;;;;;7.78;4.57;;;;;;;7.62;73.34;99421.56;5034978;28;20037;-75
2021/01/11 01:14:56;;;;;;;8.68;4.55;;;;;;;7.13;73.82;99337.41;5034940;28;20025;-79
2021/01/11 01:17:21;;;;;;;7.70;4.88;;;;;;;7.03;73.69;99326.22;5033870;28;20021;-81
2021/01/11 01:19:47;;;;;;;6.07;4.40;;;;;;;7.56;73.68;99422.22;5035048;28;20033;-81
2021/01/11 01:22:12;;;;;;;6.18;4.15;;;;;;;7.46;73.94;99432.88;5034726;28;20424;-77
2021/01/11 01:24:38;;;;;;;4.70;3.70;;;;;;;7.47;74.25;99384.59;5033903;28;20043;-87
2021/01/11 01:27:03;;;;;;;6.43;3.97;;;;;;;7.43;74.33;99370.16;5033669;28;20083;-79
2021/01/11 01:29:28;;;;;;;4.35;3.75;;;;;;;7.56;74.32;99406.47;5034732;28;20060;-83
2021/01/11 01:31:54;;;;;;;6.25;3.80;;;;;;;7.47;73.71;99400.38;5034603;28;20508;-85
2021/01/11 01:34:19;;;;;;;5.97;4.15;;;;;;;7.53;73.80;99436.50;5034863;28;20025;-82
2021/01/11 01:36:45;;;;;;;5.10;3.80;;;;;;;7.13;74.40;99341.84;5034810;28;20052;-81
2021/01/11 01:39:10;;;;;;;5.35;4.20;;;;;;;7.52;73.88;99395.44;5034458;28;20030;-83
2021/01/11 01:41:35;;;;;;;5.78;3.58;;;;;;;7.45;73.76;99398.88;5034637;28;20091;-80
2021/01/11 01:44:01;;;;;;;9.82;5.55;;;;;;;7.40;73.63;99372.25;5034524;28;20352;-80
2021/01/11 01:46:29;;;;;;;8.15;5.35;;;;;;;7.26;74.00;99327.25;5034768;28;20026;-84
2021/01/11 01:48:55;;;;;;;7.28;4.72;;;;;;;7.53;73.66;99364.75;5034536;28;20029;-82
2021/01/11 01:51:20;;;;;;;6.70;4.40;;;;;;;7.51;74.04;99366.72;5033523;28;20398;-83
2021/01/11 01:53:47;;;;;;;7.72;4.85;;;;;;;7.00;73.67;99290.63;5033619;28;20487;-83
2021/01/11 01:56:13;;;;;;;6.65;4.90;;;;;;;7.39;73.83;99349.59;5034508;28;20033;-79
2021/01/11 01:58:39;;;;;;;4.93;4.43;;;;;;;7.26;73.98;99289.69;5033449;28;20033;-82
2021/01/11 02:01:05;;;;;;;3.97;3.42;;;;;;;6.86;73.95;99232.69;5033389;28;20025;-83
2021/01/11 02:03:30;;;;;;;9.38;4.53;;;;;;;7.54;73.99;99343.56;5034537;28;20032;-79
2021/01/11 02:05:56;;;;;;;7.38;4.55;;;;;;;7.47;73.50;99331.25;5033506;28;20064;-80
2021/01/11 02:08:33;;;;;;;5.80;4.38;;;;;;;7.46;73.64;99332.22;5034684;28;20109;-83
2021/01/11 02:11:20;;;;;;;5.70;4.30;;;;;;;7.49;74.23;99326.66;5034686;28;20064;-82
2021/01/11 02:13:56;;;;;;;14.48;8.52;;;;;;;7.43;73.55;99322.03;5035747;28;20522;-82
2021/01/11 02:16:57;;;;;;;9.13;6.55;;;;;;;7.34;74.10;99329.06;5033422;28;20033;-81
2021/01/11 02:19:44;;;;;;;7.10;5.50;;;;;;;7.36;74.66;99324.47;5027342;28;20038;-79
2021/01/11 02:22:26;;;;;;;5.45;3.80;;;;;;;7.39;74.30;99339.09;5034226;28;20036;-79
2021/01/11 02:25:13;;;;;;;4.85;3.78;;;;;;;7.40;74.63;99323.16;5033405;28;20034;-88
2021/01/11 02:27:49;;;;;;;5.93;3.97;;;;;;;7.45;74.38;99331.41;5034330;28;20025;-78
2021/01/11 02:30:34;;;;;;;4.95;4.25;;;;;;;7.41;73.50;99334.50;5034038;28;20033;-83
2021/01/11 02:33:04;;;;;;;4.60;3.13;;;;;;;7.22;73.98;99323.31;5034417;28;20053;-84
2021/01/11 02:35:44;;;;;;;4.97;3.70;;;;;;;7.20;74.08;99301.66;5033252;28;20029;-82
2021/01/11 02:38:10;;;;;;;3.72;3.10;;;;;;;7.44;73.59;99349.97;5034215;28;20329;-81
2021/01/11 02:40:35;;;;;;;5.32;4.10;;;;;;;7.38;73.48;99338.28;5033157;28;20035;-83
2021/01/11 02:43:01;;;;;;;4.82;3.88;;;;;;;6.81;73.71;99243.69;5033948;28;20030;-85
2021/01/11 02:45:26;;;;;;;3.93;3.50;;;;;;;7.06;73.53;99297.03;5034159;28;20052;-83
2021/01/11 02:48:21;;;;;;;4.05;3.20;;;;;;;7.30;74.26;99330.38;5034339;28;20040;-81
2021/01/11 02:50:58;;;;;;;5.15;3.50;;;;;;;7.33;74.22;99322.19;5034889;28;20068;-82
2021/01/11 02:53:38;;;;;;;4.45;4.00;;;;;;;6.90;73.90;99240.09;5037541;28;20068;-85
2021/01/11 02:56:07;;;;;;;5.18;4.00;;;;;;;7.36;73.88;99300.84;5037566;28;20033;-82
2021/01/11 02:59:00;;;;;;;5.43;3.90;;;;;;;7.37;73.77;99307.75;5037705;28;20021;-86
2021/01/11 03:01:28;;;;;;;5.60;4.10;;;;;;;7.18;73.91;99279.16;5037610;28;20443;-82
2021/01/11 03:03:55;;;;;;;5.57;3.53;;;;;;;7.07;73.31;99263.72;5037405;28;20032;-81
2021/01/11 03:06:28;;;;;;;5.22;3.45;;;;;;;7.02;73.43;99290.47;5036293;28;20138;-83
2021/01/11 03:09:09;;;;;;;4.60;3.08;;;;;;;7.28;73.75;99317.41;5037549;28;20031;-85
2021/01/11 03:11:35;;;;;;;5.30;4.05;;;;;;;7.28;73.75;99325.28;5037503;28;20028;-86
2021/01/11 03:14:01;;;;;;;5.13;3.80;;;;;;;7.24;74.11;99310.03;5037273;28;20026;-83
2021/01/11 03:16:27;;;;;;;5.63;4.07;;;;;;;7.03;73.75;99275.53;5036126;28;20032;-85
2021/01/11 03:18:52;;;;;;;4.35;3.75;;;;;;;7.32;73.64;99333.66;5037242;28;20075;-87
2021/01/11 03:21:18;;;;;;;6.72;4.32;;;;;;;7.34;73.35;99294.94;5036968;28;20028;-83
2021/01/11 03:23:43;;;;;;;6.95;4.55;;;;;;;6.72;74.04;99223.66;5037217;28;20037;-84
2021/01/11 03:26:08;;;;;;;6.60;4.80;;;;;;;7.27;73.84;99304.44;5038621;28;20026;-82
2021/01/11 03:28:34;;;;;;;6.15;4.65;;;;;;;6.98;74.11;99239.28;5038565;28;20068;-82
2021/01/11 03:30:59;;;;;;;6.13;4.73;;;;;;;6.65;73.88;99185.91;5035593;28;20403;-87
2021/01/11 03:33:24;;;;;;;6.80;5.20;;;;;;;6.48;73.90;99161.44;5036943;28;20025;-87
2021/01/11 03:35:50;;;;;;;5.95;4.40;;;;;;;6.23;73.74;99131.75;5035827;28;20455;-86
2021/01/11 03:38:15;;;;;;;6.38;4.57;;;;;;;6.97;74.00;99243.72;5036935;28;20033;-83
2021/01/11 03:40:40;;;;;;;7.55;4.20;;;;;;;6.72;74.05;99209.72;5035892;28;20060;-87
2021/01/11 03:43:06;;;;;;;7.35;4.55;;;;;;;7.14;74.08;99301.47;5035667;28;20029;-88
2021/01/11 03:45:31;;;;;;;8.35;5.07;;;;;;;7.33;73.83;99330.06;5035822;28;20025;-84
2021/01/11 03:47:57;;;;;;;11.02;5.85;;;;;;;7.33;73.79;99316.94;5035608;28;20033;-87
2021/01/11 03:50:22;;;;;;;10.03;5.23;;;;;;;6.73;74.00;99246.28;5036578;28;20115;-85
2021/01/11 03:52:47;;;;;;;9.87;5.97;;;;;;;7.30;73.85;99317.25;5035537;28;20029;-86
2021/01/11 03:55:13;;;;;;;8.68;5.72;;;;;;;7.32;73.86;99299.53;5036553;28;20033;-87
2021/01/11 03:57:38;;;;;;;7.55;5.30;;;;;;;7.23;73.72;99276.88;5036650;28;20127;-84
2021/01/11 04:00:06;;;;;;;9.52;6.07;;;;;;;7.15;73.45;99279.50;5036488;28;20032;-86
2021/01/11 04:02:33;;;;;;;8.48;5.68;;;;;;;7.28;73.25;99301.66;5035169;28;20021;-81
2021/01/11 04:04:58;;;;;;;6.95;5.38;;;;;;;7.25;74.00;99282.78;5036205;28;20100;-82
2021/01/11 04:07:23;;;;;;;8.17;6.20;;;;;;;7.18;73.92;99281.78;5036249;28;20188;-88
2021/01/11 04:09:49;;;;;;;8.27;5.88;;;;;;;6.01;73.85;99070.25;5035245;28;20416;-86
2021/01/11 04:12:14;;;;;;;11.73;6.82;;;;;;;6.96;73.75;99226.31;5035083;28;20026;-81
2021/01/11 04:14:40;;;;;;;9.77;7.37;;;;;;;6.78;73.66;99203.81;5036462;28;20033;-85
2021/01/11 04:17:05;;;;;;;9.80;6.43;;;;;;;7.20;73.46;99266.69;5036018;28;20043;-88
2021/01/11 04:19:31;;;;;;;10.27;6.95;;;;;;;7.28;74.01;99280.66;5036136;28;20033;-85
2021/01/11 04:21:56;;;;;;;10.10;7.28;;;;;;;7.27;73.72;99304.44;5035031;28;20404;-84
2021/01/11 04:24:22;;;;;;;10.90;8.60;;;;;;;7.24;73.57;99323.16;5035905;28;20063;-88
2021/01/11 04:26:47;;;;;;;9.43;6.72;;;;;;;7.14;73.72;99307.56;5035895;28;20389;-79
2021/01/11 04:29:12;;;;;;;9.07;7.25;;;;;;;7.13;73.79;99310.34;5035719;28;20022;-83
2021/01/11 04:31:38;;;;;;;14.38;9.30;;;;;;;7.23;73.83;99326.75;5035572;28;20355;-84
2021/01/11 04:34:03;;;;;;;12.07;8.63;;;;;;;6.61;74.11;99205.56;5035546;28;20029;-81
2021/01/11 04:36:32;;;;;;;10.88;8.13;;;;;;;7.25;74.01;99311.66;5034737;28;20033;-84
2021/01/11 04:38:58;;;;;;;14.18;9.90;;;;;;;7.25;73.99;99315.13;5034863;28;20068;-81
2021/01/11 04:41:24;;;;;;;13.10;9.70;;;;;;;6.50;74.06;99205.88;5036638;28;20424;-84
2021/01/11 04:43:52;;;;;;;13.85;9.65;;;;;;;7.16;73.99;99294.25;5035810;28;20437;-86
2021/01/11 04:46:18;;;;;;;14.85;9.90;;;;;;;6.59;73.67;99194.44;5035506;28;20033;-82
2021/01/11 04:48:43;;;;;;;15.23;9.38;;;;;;;7.07;74.19;99282.09;5035585;28;20099;-86
2021/01/11 04:51:10;;;;;;;24.55;13.00;;;;;;;7.04;73.87;99295.56;5035285;28;20033;-86
2021/01/11 04:53:41;;;;;;;14.85;9.07;;;;;;;7.13;74.31;99333.97;5035596;28;20041;-81
2021/01/11 04:56:10;;;;;;;14.27;10.05;;;;;;;7.13;73.81;99331.34;5034449;28;20029;-88
2021/01/11 04:58:56;;;;;;;12.23;9.30;;;;;;;7.14;73.75;99327.72;5035421;28;20025;-88
2021/01/11 05:01:29;;;;;;;11.02;8.35;;;;;;;7.18;73.57;99355.31;5034268;28;20344;-82
2021/01/11 05:04:03;;;;;;;15.85;10.70;;;;;;;6.71;73.59;99257.94;5035408;28;20041;-87
2021/01/11 05:06:29;;;;;;;17.17;10.18;;;;;;;6.91;74.15;99304.72;5035452;28;20029;-87
2021/01/11 05:09:05;;;;;;;12.37;8.07;;;;;;;6.73;74.01;99269.09;5035334;28;20026;-88
2021/01/11 05:11:31;;;;;;;11.82;9.00;;;;;;;6.93;73.45;99321.13;5035147;28;20090;-86
2021/01/11 05:13:56;;;;;;;9.87;8.00;;;;;;;6.74;73.53;99303.03;5034853;28;20100;-86
2021/01/11 05:16:22;;;;;;;10.57;7.57;;;;;;;6.99;74.01;99341.47;5035006;28;20033;-90
2021/01/11 05:18:48;;;;;;;11.02;7.90;;;;;;;6.73;74.03;99303.19;5035120;28;20412;-86
2021/01/11 05:21:44;;;;;;;14.93;10.48;;;;;;;7.18;73.41;99340.38;5034922;28;20018;-86
2021/01/11 05:24:40;;;;;;;14.40;9.43;;;;;;;7.13;73.82;99347.09;5034942;28;20152;-85
2021/01/11 05:27:10;;;;;;;11.70;8.82;;;;;;;6.76;73.71;99285.31;5034917;28;20348;-89
2021/01/11 05:29:38;;;;;;;15.50;8.30;;;;;;;7.28;73.46;99355.97;5034946;28;20454;-80
2021/01/11 05:32:05;;;;;;;19.30;13.63;;;;;;;7.17;73.33;99317.72;5033631;28;20364;-87
2021/01/11 05:34:47;;;;;;;17.48;11.10;;;;;;;6.93;73.59;99283.56;5034866;28;20018;-90
2021/01/11 05:37:35;;;;;;;11.82;8.68;;;;;;;7.25;74.01;99335.31;5034665;28;20029;-89
2021/01/11 05:40:10;;;;;;;10.18;7.65;;;;;;;7.25;73.53;99323.00;5034710;28;20033;-93
2021/01/11 05:42:38;;;;;;;10.65;8.38;;;;;;;6.92;73.28;99263.56;5034905;28;20355;-92
2021/01/11 05:45:18;;;;;;;10.02;8.05;;;;;;;7.12;73.35;99358.56;5033603;28;20029;-86
2021/01/11 05:48:07;;;;;;;10.15;7.72;;;;;;;7.25;73.35;99424.59;5034815;28;20025;-84
2021/01/11 05:50:34;;;;;;;9.75;7.13;;;;;;;7.25;73.40;99441.16;5034613;28;20029;-83
2021/01/11 05:53:00;;;;;;;9.30;6.47;;;;;;;7.08;73.17;99407.94;5034568;28;20387;-88
2021/01/11 05:55:36;;;;;;;7.47;6.05;;;;;;;7.00;73.38;99355.44;5035029;28;20033;-88
2021/01/11 05:58:03;;;;;;;7.13;6.03;;;;;;;7.21;73.05;99404.88;5034226;28;20029;-85
2021/01/11 06:00:31;;;;;;;9.30;6.77;;;;;;;7.09;73.60;99424.53;5033408;28;20029;-87
2021/01/11 06:02:57;;;;;;;6.78;5.60;;;;;;;6.91;73.39;99414.13;5033543;28;20033;-83
2021/01/11 06:05:24;;;;;;;10.00;7.40;;;;;;;6.95;73.70;99453.03;5033334;28;20376;-83
2021/01/11 06:07:50;;;;;;;8.27;6.50;;;;;;;6.77;73.87;99456.69;5034639;28;20356;-77
2021/01/11 06:10:18;;;;;;;11.63;7.83;;;;;;;6.81;74.26;99498.22;5033149;28;20040;-87
2021/01/11 06:12:44;;;;;;;11.87;7.90;;;;;;;6.80;73.94;99508.88;5033343;28;20030;-86
2021/01/11 06:15:13;;;;;;;12.43;7.97;;;;;;;6.75;74.03;99524.25;5034157;28;20466;-78
2021/01/11 06:17:40;;;;;;;7.78;6.20;;;;;;;6.49;74.78;99534.69;5034397;28;20325;-80
2021/01/11 06:20:07;;;;;;;8.67;6.60;;;;;;;6.63;74.59;99550.72;5022883;28;20495;-81
2021/01/11 06:22:51;;;;;;;8.30;6.43;;;;;;;6.62;75.33;99538.56;5026572;28;20029;-84
2021/01/11 06:25:19;;;;;;;10.17;6.90;;;;;;;6.67;75.05;99554.66;5015055;28;20034;-78
2021/01/11 06:27:58;;;;;;;8.23;6.83;;;;;;;6.67;75.03;99549.44;5028682;28;20407;-81
2021/01/11 06:30:33;;;;;;;15.13;9.38;;;;;;;6.74;74.75;99536.53;5037855;28;20351;-76
2021/01/11 06:33:14;;;;;;;14.60;8.35;;;;;;;6.81;74.51;99537.56;5033668;28;20086;-82
2021/01/11 06:35:45;;;;;;;13.18;7.10;;;;;;;6.68;74.09;99522.22;5019387;28;20436;-84
2021/01/11 06:38:22;;;;;;;8.65;6.13;;;;;;;6.80;74.54;99566.59;5023994;28;20344;-79
2021/01/11 06:41:10;;;;;;;8.43;6.53;;;;;;;6.59;74.84;99559.03;5037951;28;20033;-77
2021/01/11 06:43:38;;;;;;;11.55;7.10;;;;;;;6.80;73.96;99551.69;5038193;28;20347;-77
2021/01/11 06:46:04;;;;;;;12.77;7.80;;;;;;;6.81;74.22;99544.63;5037292;28;20029;-75
2021/01/11 06:48:33;;;;;;;11.37;7.60;;;;;;;6.33;74.16;99449.69;5025856;28;20021;-76
2021/01/11 06:51:11;;;;;;;15.10;9.10;;;;;;;6.45;74.59;99433.69;5019652;28;20041;-75
2021/01/11 06:53:37;;;;;;;14.07;9.40;;;;;;;6.83;74.32;99498.88;5028328;28;20065;-77
2021/01/11 06:56:11;;;;;;;11.07;8.43;;;;;;;6.82;74.55;99464.94;5032640;28;20464;-78
2021/01/11 06:58:40;;;;;;;12.80;7.85;;;;;;;6.89;74.14;99458.91;5035857;28;20080;-77
2021/01/11 07:01:13;;;;;;;12.82;9.18;;;;;;;6.57;74.53;99400.97;5037145;28;20030;-77
2021/01/11 07:03:44;;;;;;;14.80;10.97;;;;;;;6.70;74.22;99388.28;5033419;28;20084;-80
2021/01/11 07:06:31;;;;;;;19.53;13.47;;;;;;;6.98;74.77;99415.97;5029736;28;20029;-79
2021/01/11 07:09:04;;;;;;;19.08;12.80;;;;;;;6.76;74.05;99368.47;5030247;28;20033;-77
2021/01/11 07:11:38;;;;;;;17.50;12.93;;;;;;;6.75;73.61;99386.00;5030410;28;20033;-77
2021/01/11 07:14:04;;;;;;;19.42;13.18;;;;;;;6.73;74.42;99400.28;5033353;28;20025;-77
2021/01/11 07:16:56;;;;;;;20.42;14.38;;;;;;;6.88;73.76;99417.06;5036833;28;20036;-76
2021/01/11 07:19:37;;;;;;;17.67;11.90;;;;;;;7.15;74.25;99461.47;5031000;28;20418;-75
2021/01/11 07:22:05;;;;;;;19.30;12.77;;;;;;;7.22;73.70;99490.53;5035413;28;20424;-79
2021/01/11 07:24:30;;;;;;;14.00;10.83;;;;;;;6.98;73.22;99441.38;5033845;28;20060;-76
2021/01/11 07:26:56;;;;;;;16.63;10.43;;;;;;;6.81;73.23;99400.31;5034870;28;20053;-76
2021/01/11 07:29:21;;;;;;;15.95;9.35;;;;;;;7.36;73.60;99484.69;5032796;28;20034;-75
2021/01/11 07:31:49;;;;;;;12.63;8.63;;;;;;;7.29;73.58;99470.56;5031014;28;20041;-75
2021/01/11 07:34:16;;;;;;;7.35;5.30;;;;;;;7.08;73.34;99401.88;5032176;28;20351;-76
2021/01/11 07:36:44;;;;;;;8.17;5.70;;;;;;;7.16;73.01;99362.53;5027277;28;20029;-79
2021/01/11 07:39:15;;;;;;;14.85;7.75;;;;;;;7.26;73.05;99395.53;5025783;28;20026;-77
2021/01/11 07:41:43;;;;;;;17.92;12.30;;;;;;;7.07;72.80;99360.84;5033096;28;20028;-79
2021/01/11 07:44:12;;;;;;;17.33;10.30;;;;;;;7.31;73.06;99382.75;5031018;28;20025;-77
2021/01/11 07:46:38;;;;;;;23.38;14.07;;;;;;;7.38;72.17;99306.75;5032661;28;20036;-86
2021/01/11 07:49:14;;;;;;;20.95;13.77;;;;;;;6.99;72.32;99236.50;5031436;28;20029;-78
2021/01/11 07:51:40;;;;;;;15.88;10.77;;;;;;;7.18;73.23;99300.16;5035225;28;20325;-77
2021/01/11 07:54:07;;;;;;;14.70;9.47;;;;;;;7.03;72.98;99286.84;5024820;28;20044;-78
2021/01/11 07:56:33;;;;;;;12.43;7.88;;;;;;;6.98;73.38;99295.22;5020169;28;20049;-81
2021/01/11 07:58:58;;;;;;;11.13;7.43;;;;;;;7.25;73.75;99411.44;5025784;28;20048;-80
2021/01/11 08:01:24;;;;;;;9.65;7.75;;;;;;;7.32;73.18;99446.59;5036341;28;20037;-78
2021/01/11 08:03:54;;;;;;;12.77;8.68;;;;;;;7.03;73.47;99378.72;5035437;28;20032;-78
2021/01/11 08:06:20;;;;;;;15.75;10.00;;;;;;;6.80;73.25;99349.63;5029340;28;20033;-82
2021/01/11 08:08:50;;;;;;;14.65;10.02;;;;;;;6.79;73.17;99376.84;5034702;28;20470;-86
2021/01/11 08:11:17;;;;;;;14.13;10.25;;;;;;;7.50;73.32;99475.41;5033155;28;20034;-89
2021/01/11 08:13:42;;;;;;;16.65;10.75;;;;;;;6.72;73.09;99339.09;5024355;28;20037;-85
2021/01/11 08:16:13;;;;;;;12.88;9.20;;;;;;;7.59;72.51;99427.97;5034645;28;20351;-92
2021/01/11 08:18:40;;;;;;;12.82;9.98;;;;;;;7.04;72.68;99299.00;5033911;28;20347;-90
2021/01/11 08:21:10;;;;;;;14.63;10.82;;;;;;;6.54;73.02;99278.84;5034196;28;20022;-82
2021/01/11 08:23:37;;;;;;;18.63;14.15;;;;;;;7.33;72.63;99430.69;5024742;28;20121;-90
2021/01/11 08:26:06;;;;;;;23.20;14.52;;;;;;;7.61;73.41;99436.50;5027625;28;20031;-85
2021/01/11 08:28:32;;;;;;;26.38;15.73;;;;;;;7.33;73.45;99387.84;5029982;28;20048;-91
2021/01/11 08:31:05;;;;;;;22.20;15.18;;;;;;;7.65;73.45;99443.09;5039689;23;20053;-89
2021/01/11 08:33:33;;;;;;;18.73;14.48;;;;;;;7.58;72.90;99454.41;5035103;28;20061;-89
2021/01/11 08:36:16;;;;;;;23.70;15.15;;;;;;;7.24;72.69;99405.38;5035187;28;20049;-86
2021/01/11 08:39:06;;;;;;;21.55;15.05;;;;;;;7.75;72.94;99447.38;5035383;28;20365;-84
2021/01/11 08:41:33;;;;;;;22.58;16.52;;;;;;;6.36;72.92;99241.41;5034402;28;20387;-86
2021/01/11 08:43:59;;;;;;;28.42;19.65;;;;;;;7.78;72.92;99474.16;5034917;28;20100;-82
2021/01/11 08:46:55;;;;;;;29.52;20.92;;;;;;;7.80;72.68;99456.41;5032350;23;20153;-89
2021/01/11 08:49:21;;;;;;;25.52;18.23;;;;;;;7.84;72.44;99452.47;5029298;28;20044;-91
2021/01/11 08:51:48;;;;;;;18.55;13.43;;;;;;;7.87;72.43;99448.69;5034245;28;20025;-90
2021/01/11 08:54:27;;;;;;;19.63;14.88;;;;;;;7.54;72.64;99409.25;5034407;28;20172;-89
2021/01/11 08:56:57;;;;;;;17.60;13.40;;;;;;;7.73;72.65;99439.66;5034643;28;20029;-84
2021/01/11 08:59:23;;;;;;;22.40;17.70;;;;;;;7.52;72.12;99387.56;5024862;28;20037;-89
2021/01/11 09:01:50;;;;;;;31.55;22.63;;;;;;;7.91;72.38;99435.06;5034366;28;20456;-86
2021/01/11 09:04:32;;;;;;;21.02;15.80;;;;;;;6.93;72.67;99265.19;5031835;28;20029;-85
2021/01/11 09:07:06;;;;;;;23.95;17.10;;;;;;;7.48;72.41;99354.72;5021954;28;20028;-85
2021/01/11 09:09:33;;;;;;;24.23;17.40;;;;;;;7.81;72.67;99394.16;5033356;28;20436;-88
2021/01/11 09:12:02;;;;;;;25.45;20.10;;;;;;;8.11;72.42;99414.53;5033141;28;20090;-85
2021/01/11 09:14:27;;;;;;;32.80;23.40;;;;;;;8.14;72.20;99451.00;5033337;28;20352;-87
2021/01/11 09:17:04;;;;;;;44.42;27.73;;;;;;;8.11;72.15;99424.22;5034383;28;20025;-85
2021/01/11 09:19:30;;;;;;;54.47;33.78;;;;;;;8.10;72.07;99428.66;5032641;28;20391;-84
2021/01/11 09:22:16;;;;;;;49.85;30.20;;;;;;;8.05;72.27;99423.06;5034474;28;20057;-85
2021/01/11 09:24:45;;;;;;;46.15;31.55;;;;;;;7.53;72.06;99328.78;5032408;28;20428;-84
2021/01/11 09:27:11;;;;;;;45.75;32.08;;;;;;;8.08;72.55;99417.50;5031954;28;20080;-87
2021/01/11 09:29:37;;;;;;;42.80;26.48;;;;;;;7.23;72.65;99263.75;5029195;28;20087;-81
2021/01/11 09:32:05;;;;;;;26.85;18.98;;;;;;;8.17;72.43;99408.59;5026422;28;20040;-87
2021/01/11 09:34:30;;;;;;;17.05;12.80;;;;;;;7.27;72.25;99284.25;5029164;28;20045;-86
2021/01/11 09:36:56;;;;;;;15.65;10.70;;;;;;;7.63;72.34;99339.97;5028489;28;20033;-87
2021/01/11 09:39:21;;;;;;;8.40;6.25;;;;;;;8.23;72.55;99423.75;5029540;28;20038;-83
2021/01/11 09:41:53;;;;;;;9.15;6.50;;;;;;;8.16;72.10;99403.50;5028533;28;20084;-88
2021/01/11 09:44:19;;;;;;;9.15;6.43;;;;;;;8.26;72.50;99414.72;5028111;28;20041;-84
2021/01/11 09:46:49;;;;;;;7.07;5.57;;;;;;;8.28;71.86;99436.41;5025119;28;20056;-88
2021/01/11 09:49:15;;;;;;;12.63;9.32;;;;;;;8.01;72.49;99411.25;5031994;28;20033;-81
2021/01/11 09:51:41;;;;;;;11.60;7.60;;;;;;;8.11;72.59;99440.00;5026042;28;20344;-81
2021/01/11 09:54:07;;;;;;;11.40;7.05;;;;;;;8.10;72.45;99425.22;5027887;28;20037;-81
2021/01/11 09:56:34;;;;;;;11.82;7.40;;;;;;;8.26;72.36;99451.53;5023912;28;20033;-78
2021/01/11 09:59:00;;;;;;;13.60;9.98;;;;;;;8.04;72.26;99431.13;5026894;28;20080;-79
2021/01/11 10:01:45;;;;;;;15.40;9.95;;;;;;;7.96;72.68;99414.38;5029074;28;20034;-83
2021/01/11 10:04:12;;;;;;;11.63;8.68;;;;;;;8.05;72.77;99430.97;5028692;28;20384;-80
2021/01/11 10:06:41;;;;;;;13.25;9.80;;;;;;;8.33;72.28;99468.31;5033600;28;20029;-82
2021/01/11 10:09:09;;;;;;;9.80;8.10;;;;;;;8.24;72.68;99441.19;5029070;28;20045;-81
2021/01/11 10:11:34;;;;;;;12.43;9.52;;;;;;;7.56;72.30;99349.47;5035017;28;20059;-83
2021/01/11 10:14:00;;;;;;;11.68;8.88;;;;;;;8.19;72.25;99417.19;5034509;28;20026;-87
2021/01/11 10:16:25;;;;;;;15.75;11.05;;;;;;;8.04;72.13;99374.09;5034442;28;20083;-87
2021/01/11 10:18:51;;;;;;;12.77;9.60;;;;;;;7.36;72.57;99281.63;5031586;28;20044;-85
2021/01/11 10:21:16;;;;;;;13.75;10.75;;;;;;;8.08;72.30;99404.34;5025798;28;20091;-90
2021/01/11 10:23:42;;;;;;;15.15;10.57;;;;;;;8.28;72.18;99428.50;5032404;28;20318;-85
2021/01/11 10:26:13;;;;;;;16.65;12.27;;;;;;;7.52;72.66;99332.41;5034547;28;20033;-88
2021/01/11 10:28:38;;;;;;;18.83;12.80;;;;;;;8.04;72.55;99404.84;5026678;28;20459;-85
2021/01/11 10:31:04;;;;;;;18.73;13.45;;;;;;;7.79;72.75;99375.09;5026895;28;20125;-87
2021/01/11 10:33:29;;;;;;;17.55;12.35;;;;;;;7.73;72.65;99355.56;5039443;28;20112;-86
2021/01/11 10:35:56;;;;;;;20.30;13.57;;;;;;;7.83;72.89;99376.41;5032078;28;20021;-80
2021/01/11 10:38:22;;;;;;;16.58;10.40;;;;;;;7.93;73.34;99408.63;5033912;28;20454;-84
2021/01/11 10:40:47;;;;;;;19.98;12.98;;;;;;;7.79;73.32;99365.41;5030373;28;20041;-81
2021/01/11 10:43:13;;;;;;;14.20;9.35;;;;;;;8.02;73.55;99405.00;5027132;28;20109;-88
2021/01/11 10:45:38;;;;;;;28.65;17.85;;;;;;;7.82;74.16;99387.91;5032067;28;20068;-83
2021/01/11 10:48:05;;;;;;;25.80;15.75;;;;;;;8.09;73.95;99445.44;5032177;28;20029;-86
2021/01/11 10:50:30;;;;;;;19.90;11.15;;;;;;;7.95;74.56;99417.16;5029239;28;20525;-83
2021/01/11 10:52:56;;;;;;;19.40;12.45;;;;;;;8.03;74.31;99417.16;5032714;28;20218;-83
2021/01/11 10:55:21;;;;;;;20.55;12.27;;;;;;;8.01;74.34;99411.25;5027261;28;20030;-84
2021/01/11 10:57:48;;;;;;;22.77;13.60;;;;;;;7.15;74.32;99272.44;5033766;28;20108;-85
2021/01/11 11:00:14;;;;;;;21.55;12.13;;;;;;;7.75;73.90;99363.28;5030564;28;20445;-79
2021/01/11 11:02:44;;;;;;;28.00;14.23;;;;;;;7.37;74.22;99313.00;5031260;28;20045;-80
2021/01/11 11:05:10;;;;;;;24.25;13.82;;;;;;;7.70;74.76;99381.34;5035764;28;20056;-80
2021/01/11 11:07:38;;;;;;;34.88;16.60;;;;;;;7.75;74.73;99381.69;5033047;28;20026;-76
2021/01/11 11:10:05;;;;;;;27.42;15.23;;;;;;;7.91;74.18;99407.97;5029981;28;20120;-77
2021/01/11 11:12:31;;;;;;;22.67;12.65;;;;;;;8.00;74.77;99421.94;5028552;28;20076;-79
2021/01/11 11:14:59;;;;;;;24.13;14.05;;;;;;;8.04;74.82;99441.66;5027594;28;20359;-80
2021/01/11 11:17:28;;;;;;;19.02;11.65;;;;;;;7.63;74.50;99355.72;5023756;28;20383;-78
2021/01/11 11:19:53;;;;;;;15.02;9.88;;;;;;;8.04;75.01;99403.03;5022503;28;20133;-79
2021/01/11 11:22:18;;;;;;;22.08;12.20;;;;;;;8.08;74.84;99420.13;5033441;28;20468;-78
2021/01/11 11:24:44;;;;;;;20.77;12.27;;;;;;;8.10;74.75;99407.63;5036152;28;20032;-80
2021/01/11 11:27:09;;;;;;;20.25;12.15;;;;;;;8.03;74.54;99385.59;5035642;28;20117;-84
2021/01/11 11:29:35;;;;;;;28.08;15.07;;;;;;;8.15;74.47;99436.06;5031790;28;20032;-79
2021/01/11 11:32:00;;;;;;;22.83;15.40;;;;;;;8.18;74.17;99418.16;5030654;28;20421;-76
2021/01/11 11:34:27;;;;;;;19.38;12.43;;;;;;;7.97;74.44;99381.00;5028058;28;20026;-81
2021/01/11 11:36:56;;;;;;;22.67;16.95;;;;;;;7.55;74.00;99312.88;5023982;28;20087;-80
2021/01/11 11:39:21;;;;;;;27.45;17.70;;;;;;;8.26;74.33;99425.22;5032223;28;20033;-83
2021/01/11 11:41:47;;;;;;;23.77;16.10;;;;;;;7.86;74.24;99362.94;5027935;28;20525;-88
2021/01/11 11:44:12;;;;;;;26.08;17.85;;;;;;;7.81;74.41;99352.09;5029946;28;20108;-91